Стригино

Карта отелей и гостиниц, располагающихся рядом с аэропортом Стригино :

Стригино
Нижний Новгород
Нижегородская область 56° 13' 47.7012" N, 43° 47' 2.8788" E
Код аэродрома ИКАО
UWGG
Код аэродрома RU
УВГГ
Координаты
N56.22992° E043.78413°
Превышение над уровнем моря
78
Основная полоса
36R/18L
Курс магнитный
359,2/179,2
Длина основной ВПП
2807
Ширина основной ВПП
45
Покрытие основной ВПП
Твёрдое
Освещение ВПП
Постоянное
Тип: 
Аэродром
Класс аэродрома: 
Международный
Принадлежность: 
ГА
Статус: 
Действующий
Сайт: 
airportnn.ru
E-mail аэродрома: 
airport@airportnn.ru
Страна: 
Россия
Регион: 
Нижегородская область
Город: 
Нижний Новгород
Дополнительная информация: 
Эксплуатант: ОАО «Международный аэропорт Нижний Новгород» (МАНН). Совместного базирования. Является запасным для аэропортов Московского авиационного узла. На территории расположены: Нижегородский центр ОВД (филиал МЦ АУВД ФГУП "Госкорпорация по ОрВД") и 675-й авиаполк особого назначения (апон) авиации ВВ МВД на самолетах Ил-76 и вертолетах Ми-8. ВПП 02/20 была построена до ВОВ, имела железное покрытие, которое было демонтировано. Военный индекс: XWGG / ЬВГГ.
Схемы аэропортов: 
Погода: 

Авиационная погода в Нижнем Новгороде

Регион: 
Погода METAR: 
UWGG 282200Z 35002MPS CAVOK 09/07 Q1022 R36R/090070 NOSIG
Время наблюдения
2022-06-28T22:00:00Z
Температура C
9.0
Точка росы
7.0
Направление ветра
350
Скорость ветра (узлы)
4
Метео видимость
6.21
Облачность
CAVOK
Нижняя граница облачности (футы)
Явления погоды
Условия полета
VFR
Аэропорт подробнее: 

Найти трансфер

С помощью этой формы Вы можете найти трансфер из аэропорта Стригино в город, аэропорт или вокзал:

Погода в аэропортах:

Авиационная погода в Архангельске

Регион: 
Погода METAR: 
ULAA 282200Z 00000MPS 9999 MIFG NSC 06/06 Q1028 R26/CLRD70 NOSIG RMK QFE769/1026
Время наблюдения
2022-06-28T22:00:00Z
Температура C
6.0
Точка росы
6.0
Направление ветра
0
Скорость ветра (узлы)
0
Метео видимость
6.21
Облачность
CLR
Нижняя граница облачности (футы)
Явления погоды
MIFG
Условия полета
VFR
Аэропорт подробнее: 
CLR — нет облаков ниже 3000 м
MIFG - туман поземный;

Авиационная погода в Закаталы

Регион: 
Погода METAR: 
UBBY 040100Z 08014KT 5000 -SHRA SCT040CB OVC045 15/14 Q1019 NOSIG RMK MT OBSC
Время наблюдения
2022-07-04T01:00:00Z
Температура C
15.0
Точка росы
14.0
Направление ветра
80
Скорость ветра (узлы)
14
Метео видимость
3.11
Облачность
SCT
OVC
Нижняя граница облачности (футы)
4000
4500
Явления погоды
-SHRA
Условия полета
MVFR
SCT – разбросанная отдельная облачность; OVC – сплошная облачность;
-SHRA - слабый ливневой дождь;

Авиационная погода в Кокшетау

Регион: 
Погода METAR: 
UACK 040530Z 07006MPS 9999 -RA OVC074 14/12 Q0999 NOSIG RMK QFE725/0967
Время наблюдения
2022-07-04T05:30:00Z
Температура C
14.0
Точка росы
12.0
Направление ветра
70
Скорость ветра (узлы)
12
Метео видимость
6.21
Облачность
OVC
Нижняя граница облачности (футы)
7400
Явления погоды
-RA
Условия полета
VFR
Аэропорт подробнее: 
OVC – сплошная облачность;
-RA - слабый дождь;

Авиационная погода в Бухте Провидения

Погода METAR: 
UHMD 282200Z 20004MPS 2500 BR OVC003 06/05 Q1018 RMK QBB110 MT OBSC QFE763/1017
Время наблюдения
2022-06-28T22:00:00Z
Температура C
6.0
Точка росы
5.0
Направление ветра
200
Скорость ветра (узлы)
8
Метео видимость
1.55
Облачность
OVC
Нижняя граница облачности (футы)
300
Явления погоды
BR
Условия полета
LIFR
Аэропорт подробнее: 
OVC – сплошная облачность;
BR – дымка (видимость от 1 до 9 км);